sensor_id;sensor_type;location;lat;lon;timestamp;pressure;altitude;pressure_sealevel;temperature;humidity
41044;BME280;51680;49.806;18.774;2023-07-28T00:02:07;96705.16;;;20.50;51.22
41044;BME280;51680;49.806;18.774;2023-07-28T00:05:09;96707.16;;;20.48;51.57
41044;BME280;51680;49.806;18.774;2023-07-28T00:08:12;96701.41;;;20.45;51.96
41044;BME280;51680;49.806;18.774;2023-07-28T00:11:15;96705.53;;;20.47;51.83
41044;BME280;51680;49.806;18.774;2023-07-28T00:14:17;96698.75;;;20.45;52.26
41044;BME280;51680;49.806;18.774;2023-07-28T00:17:19;96704.38;;;20.42;52.40
41044;BME280;51680;49.806;18.774;2023-07-28T00:20:20;96701.88;;;20.48;52.58
41044;BME280;51680;49.806;18.774;2023-07-28T00:23:24;96699.03;;;20.50;52.88
41044;BME280;51680;49.806;18.774;2023-07-28T00:26:25;96693.56;;;20.51;52.51
41044;BME280;51680;49.806;18.774;2023-07-28T00:29:27;96691.72;;;20.52;52.77
41044;BME280;51680;49.806;18.774;2023-07-28T00:32:29;96696.03;;;20.53;52.95
41044;BME280;51680;49.806;18.774;2023-07-28T00:35:31;96688.06;;;20.53;52.97
41044;BME280;51680;49.806;18.774;2023-07-28T00:38:34;96683.75;;;20.52;52.94
41044;BME280;51680;49.806;18.774;2023-07-28T00:41:36;96680.09;;;20.53;53.05
41044;BME280;51680;49.806;18.774;2023-07-28T00:44:38;96681.69;;;20.62;52.93
41044;BME280;51680;49.806;18.774;2023-07-28T00:47:40;96678.75;;;20.57;52.82
41044;BME280;51680;49.806;18.774;2023-07-28T00:50:45;96667.03;;;20.51;53.23
41044;BME280;51680;49.806;18.774;2023-07-28T00:53:48;96667.22;;;20.50;53.18
41044;BME280;51680;49.806;18.774;2023-07-28T00:56:50;96662.38;;;20.53;52.96
41044;BME280;51680;49.806;18.774;2023-07-28T00:59:52;96652.59;;;20.54;53.24
41044;BME280;51680;49.806;18.774;2023-07-28T01:02:54;96647.31;;;20.54;53.17
41044;BME280;51680;49.806;18.774;2023-07-28T01:06:10;96639.25;;;20.62;53.47
41044;BME280;51680;49.806;18.774;2023-07-28T01:09:16;96641.91;;;20.62;53.70
41044;BME280;51680;49.806;18.774;2023-07-28T01:12:21;96631.13;;;20.63;53.30
41044;BME280;51680;49.806;18.774;2023-07-28T01:15:23;96630.28;;;20.63;53.30
41044;BME280;51680;49.806;18.774;2023-07-28T01:18:25;96632.31;;;20.61;53.74
41044;BME280;51680;49.806;18.774;2023-07-28T01:21:29;96625.38;;;20.60;53.71
41044;BME280;51680;49.806;18.774;2023-07-28T01:24:40;96625.00;;;20.63;53.94
41044;BME280;51680;49.806;18.774;2023-07-28T01:27:45;96621.16;;;20.65;53.56
41044;BME280;51680;49.806;18.774;2023-07-28T01:30:47;96616.22;;;20.62;53.68
41044;BME280;51680;49.806;18.774;2023-07-28T01:33:49;96619.34;;;20.66;53.76
41044;BME280;51680;49.806;18.774;2023-07-28T01:36:51;96608.28;;;20.62;53.79
41044;BME280;51680;49.806;18.774;2023-07-28T01:39:52;96610.63;;;20.57;53.84
41044;BME280;51680;49.806;18.774;2023-07-28T01:42:56;96612.53;;;20.49;53.94
41044;BME280;51680;49.806;18.774;2023-07-28T01:45:58;96607.75;;;20.44;54.27
41044;BME280;51680;49.806;18.774;2023-07-28T01:49:00;96608.63;;;20.37;54.47
41044;BME280;51680;49.806;18.774;2023-07-28T01:52:02;96608.28;;;20.40;54.42
41044;BME280;51680;49.806;18.774;2023-07-28T01:55:04;96606.09;;;20.43;54.56
41044;BME280;51680;49.806;18.774;2023-07-28T01:58:08;96600.97;;;20.42;54.53
41044;BME280;51680;49.806;18.774;2023-07-28T02:01:12;96600.34;;;20.40;54.61
41044;BME280;51680;49.806;18.774;2023-07-28T02:04:14;96590.72;;;20.39;54.56
41044;BME280;51680;49.806;18.774;2023-07-28T02:07:16;96586.66;;;20.28;55.06
41044;BME280;51680;49.806;18.774;2023-07-28T02:10:18;96585.88;;;20.20;55.19
41044;BME280;51680;49.806;18.774;2023-07-28T02:13:22;96594.13;;;20.25;55.35
41044;BME280;51680;49.806;18.774;2023-07-28T02:16:24;96590.44;;;20.03;56.91
41044;BME280;51680;49.806;18.774;2023-07-28T02:19:28;96586.13;;;20.10;55.77
41044;BME280;51680;49.806;18.774;2023-07-28T02:22:29;96587.72;;;20.19;55.45
41044;BME280;51680;49.806;18.774;2023-07-28T02:25:31;96578.78;;;20.20;55.71
41044;BME280;51680;49.806;18.774;2023-07-28T02:28:35;96580.88;;;20.25;55.43
41044;BME280;51680;49.806;18.774;2023-07-28T02:31:37;96578.44;;;20.23;55.53
41044;BME280;51680;49.806;18.774;2023-07-28T02:34:39;96578.53;;;20.30;55.65
41044;BME280;51680;49.806;18.774;2023-07-28T02:37:41;96563.31;;;20.24;55.81
41044;BME280;51680;49.806;18.774;2023-07-28T02:40:43;96560.69;;;20.24;55.68
41044;BME280;51680;49.806;18.774;2023-07-28T02:43:46;96559.66;;;20.25;55.98
41044;BME280;51680;49.806;18.774;2023-07-28T02:46:48;96567.63;;;20.25;55.75
41044;BME280;51680;49.806;18.774;2023-07-28T02:49:50;96577.59;;;20.23;55.91
41044;BME280;51680;49.806;18.774;2023-07-28T02:52:51;96573.25;;;20.30;56.21
41044;BME280;51680;49.806;18.774;2023-07-28T02:55:53;96582.47;;;20.34;56.16
41044;BME280;51680;49.806;18.774;2023-07-28T02:58:56;96571.97;;;20.40;56.32
41044;BME280;51680;49.806;18.774;2023-07-28T03:01:58;96573.88;;;20.32;56.35
41044;BME280;51680;49.806;18.774;2023-07-28T03:05:00;96583.75;;;20.38;56.40
41044;BME280;51680;49.806;18.774;2023-07-28T03:08:32;96582.38;;;20.27;56.85
41044;BME280;51680;49.806;18.774;2023-07-28T03:11:52;96579.22;;;20.24;56.76
41044;BME280;51680;49.806;18.774;2023-07-28T03:14:55;96586.84;;;20.27;56.78
41044;BME280;51680;49.806;18.774;2023-07-28T03:17:57;96578.59;;;20.22;56.95
41044;BME280;51680;49.806;18.774;2023-07-28T03:20:59;96580.81;;;20.33;56.93
41044;BME280;51680;49.806;18.774;2023-07-28T03:24:01;96582.13;;;20.37;56.76
41044;BME280;51680;49.806;18.774;2023-07-28T03:27:03;96587.53;;;20.43;56.90
41044;BME280;51680;49.806;18.774;2023-07-28T03:30:07;96581.78;;;20.40;57.02
41044;BME280;51680;49.806;18.774;2023-07-28T03:33:11;96584.13;;;20.35;57.17
41044;BME280;51680;49.806;18.774;2023-07-28T03:36:13;96580.31;;;20.37;57.62
41044;BME280;51680;49.806;18.774;2023-07-28T03:39:14;96577.16;;;20.34;57.46
41044;BME280;51680;49.806;18.774;2023-07-28T03:42:20;96593.34;;;20.39;57.74
41044;BME280;51680;49.806;18.774;2023-07-28T03:45:23;96586.66;;;20.28;58.31
41044;BME280;51680;49.806;18.774;2023-07-28T03:48:25;96601.44;;;20.23;58.73
41044;BME280;51680;49.806;18.774;2023-07-28T03:51:27;96591.25;;;20.12;59.29
41044;BME280;51680;49.806;18.774;2023-07-28T03:54:29;96591.97;;;19.98;59.90
41044;BME280;51680;49.806;18.774;2023-07-28T03:57:30;96588.91;;;19.86;60.76
41044;BME280;51680;49.806;18.774;2023-07-28T04:00:34;96585.72;;;19.91;60.64
41044;BME280;51680;49.806;18.774;2023-07-28T04:03:36;96582.44;;;19.89;61.11
41044;BME280;51680;49.806;18.774;2023-07-28T04:06:40;96583.38;;;19.96;60.84
41044;BME280;51680;49.806;18.774;2023-07-28T04:09:42;96588.19;;;19.92;60.97
41044;BME280;51680;49.806;18.774;2023-07-28T04:12:44;96594.97;;;19.95;61.45
41044;BME280;51680;49.806;18.774;2023-07-28T04:15:47;96578.28;;;19.94;61.73
41044;BME280;51680;49.806;18.774;2023-07-28T04:18:48;96576.09;;;19.98;61.64
41044;BME280;51680;49.806;18.774;2023-07-28T04:21:50;96572.44;;;19.99;61.86
41044;BME280;51680;49.806;18.774;2023-07-28T04:24:52;96575.38;;;20.04;61.85
41044;BME280;51680;49.806;18.774;2023-07-28T04:27:55;96565.47;;;19.98;62.45
41044;BME280;51680;49.806;18.774;2023-07-28T04:30:58;96565.19;;;19.93;63.31
41044;BME280;51680;49.806;18.774;2023-07-28T04:34:25;96574.06;;;19.77;64.63
41044;BME280;51680;49.806;18.774;2023-07-28T04:37:50;96576.88;;;19.76;64.97
41044;BME280;51680;49.806;18.774;2023-07-28T04:41:03;96580.22;;;19.70;65.99
41044;BME280;51680;49.806;18.774;2023-07-28T04:44:27;96572.28;;;19.70;66.36
41044;BME280;51680;49.806;18.774;2023-07-28T04:47:35;96578.56;;;19.69;67.23
41044;BME280;51680;49.806;18.774;2023-07-28T04:50:37;96579.91;;;19.65;67.88
41044;BME280;51680;49.806;18.774;2023-07-28T04:53:48;96583.78;;;19.54;68.58
41044;BME280;51680;49.806;18.774;2023-07-28T04:56:56;96583.31;;;19.43;69.65
41044;BME280;51680;49.806;18.774;2023-07-28T05:00:06;96586.34;;;19.40;70.76
41044;BME280;51680;49.806;18.774;2023-07-28T05:03:10;96596.28;;;19.30;75.61
41044;BME280;51680;49.806;18.774;2023-07-28T05:06:18;96591.81;;;19.30;70.66
41044;BME280;51680;49.806;18.774;2023-07-28T05:09:20;96586.38;;;19.24;72.32
41044;BME280;51680;49.806;18.774;2023-07-28T05:12:22;96586.88;;;19.11;73.32
41044;BME280;51680;49.806;18.774;2023-07-28T05:15:24;96586.25;;;19.09;73.82
41044;BME280;51680;49.806;18.774;2023-07-28T05:18:27;96582.56;;;19.18;74.00
41044;BME280;51680;49.806;18.774;2023-07-28T05:21:48;96581.75;;;19.26;73.86
41044;BME280;51680;49.806;18.774;2023-07-28T05:24:52;96585.72;;;19.30;74.01
41044;BME280;51680;49.806;18.774;2023-07-28T05:27:54;96580.41;;;19.30;74.73
41044;BME280;51680;49.806;18.774;2023-07-28T05:31:03;96585.03;;;19.36;76.10
41044;BME280;51680;49.806;18.774;2023-07-28T05:34:06;96578.09;;;19.27;74.70
41044;BME280;51680;49.806;18.774;2023-07-28T05:37:08;96592.00;;;19.21;75.06
41044;BME280;51680;49.806;18.774;2023-07-28T05:40:11;96587.03;;;19.18;75.59
41044;BME280;51680;49.806;18.774;2023-07-28T05:43:13;96588.03;;;19.17;75.32
41044;BME280;51680;49.806;18.774;2023-07-28T05:46:15;96586.69;;;19.29;75.20
41044;BME280;51680;49.806;18.774;2023-07-28T05:49:18;96593.91;;;19.43;75.59
41044;BME280;51680;49.806;18.774;2023-07-28T05:52:20;96589.31;;;19.37;76.14
41044;BME280;51680;49.806;18.774;2023-07-28T05:55:22;96590.94;;;19.38;76.16
41044;BME280;51680;49.806;18.774;2023-07-28T05:58:24;96599.88;;;19.45;76.13
41044;BME280;51680;49.806;18.774;2023-07-28T06:01:26;96602.88;;;19.34;76.91
41044;BME280;51680;49.806;18.774;2023-07-28T06:04:48;96603.09;;;19.24;77.72
41044;BME280;51680;49.806;18.774;2023-07-28T06:07:50;96606.22;;;19.20;78.14
41044;BME280;51680;49.806;18.774;2023-07-28T06:10:52;96605.56;;;19.10;79.13
41044;BME280;51680;49.806;18.774;2023-07-28T06:13:54;96608.56;;;19.07;79.19
41044;BME280;51680;49.806;18.774;2023-07-28T06:16:58;96614.97;;;19.12;78.49
41044;BME280;51680;49.806;18.774;2023-07-28T06:20:06;96617.13;;;19.17;79.35
41044;BME280;51680;49.806;18.774;2023-07-28T06:23:08;96610.84;;;19.18;79.18
41044;BME280;51680;49.806;18.774;2023-07-28T06:26:10;96620.63;;;19.17;79.75
41044;BME280;51680;49.806;18.774;2023-07-28T06:29:14;96613.97;;;19.21;80.03
41044;BME280;51680;49.806;18.774;2023-07-28T06:32:16;96615.47;;;19.24;79.59
41044;BME280;51680;49.806;18.774;2023-07-28T06:35:19;96621.63;;;19.08;81.12
41044;BME280;51680;49.806;18.774;2023-07-28T06:38:21;96627.41;;;19.04;80.44
41044;BME280;51680;49.806;18.774;2023-07-28T06:41:23;96632.03;;;19.10;80.06
41044;BME280;51680;49.806;18.774;2023-07-28T06:44:31;96631.38;;;19.16;80.44
41044;BME280;51680;49.806;18.774;2023-07-28T06:47:33;96626.56;;;19.19;80.27
41044;BME280;51680;49.806;18.774;2023-07-28T06:50:37;96626.41;;;19.13;81.16
41044;BME280;51680;49.806;18.774;2023-07-28T06:53:39;96632.22;;;19.00;82.48
41044;BME280;51680;49.806;18.774;2023-07-28T06:56:41;96624.94;;;19.02;83.00
41044;BME280;51680;49.806;18.774;2023-07-28T06:59:43;96632.38;;;18.99;84.04
41044;BME280;51680;49.806;18.774;2023-07-28T07:02:45;96633.22;;;18.91;85.00
41044;BME280;51680;49.806;18.774;2023-07-28T07:05:49;96641.66;;;18.95;85.28
41044;BME280;51680;49.806;18.774;2023-07-28T07:08:51;96640.69;;;18.88;85.67
41044;BME280;51680;49.806;18.774;2023-07-28T07:11:53;96638.34;;;18.85;85.76
41044;BME280;51680;49.806;18.774;2023-07-28T07:14:55;96636.72;;;18.84;85.90
41044;BME280;51680;49.806;18.774;2023-07-28T07:17:56;96638.72;;;18.74;87.24
41044;BME280;51680;49.806;18.774;2023-07-28T07:21:02;96635.75;;;18.77;87.82
41044;BME280;51680;49.806;18.774;2023-07-28T07:24:04;96625.97;;;18.77;87.58
41044;BME280;51680;49.806;18.774;2023-07-28T07:27:06;96632.41;;;18.67;88.37
41044;BME280;51680;49.806;18.774;2023-07-28T07:30:11;96634.25;;;18.74;87.60
41044;BME280;51680;49.806;18.774;2023-07-28T07:33:13;96633.41;;;18.66;89.21
41044;BME280;51680;49.806;18.774;2023-07-28T07:36:17;96642.16;;;18.58;89.92
41044;BME280;51680;49.806;18.774;2023-07-28T07:39:19;96645.81;;;18.73;88.57
41044;BME280;51680;49.806;18.774;2023-07-28T07:42:21;96644.97;;;18.81;88.60
41044;BME280;51680;49.806;18.774;2023-07-28T07:45:23;96644.13;;;18.88;88.38
41044;BME280;51680;49.806;18.774;2023-07-28T07:48:24;96636.88;;;18.90;88.91
41044;BME280;51680;49.806;18.774;2023-07-28T07:51:27;96648.09;;;19.00;88.56
41044;BME280;51680;49.806;18.774;2023-07-28T07:54:29;96648.63;;;18.96;89.10
41044;BME280;51680;49.806;18.774;2023-07-28T07:57:31;96644.94;;;19.05;89.07
41044;BME280;51680;49.806;18.774;2023-07-28T08:00:33;96646.63;;;18.90;91.35
41044;BME280;51680;49.806;18.774;2023-07-28T08:03:35;96645.63;;;18.99;91.21
41044;BME280;51680;49.806;18.774;2023-07-28T08:06:39;96644.31;;;18.87;91.88
41044;BME280;51680;49.806;18.774;2023-07-28T08:09:41;96647.28;;;18.92;91.84
41044;BME280;51680;49.806;18.774;2023-07-28T08:12:43;96641.81;;;19.09;90.42
41044;BME280;51680;49.806;18.774;2023-07-28T08:15:47;96643.78;;;19.23;90.17
41044;BME280;51680;49.806;18.774;2023-07-28T08:18:49;96640.84;;;19.57;88.58
41044;BME280;51680;49.806;18.774;2023-07-28T08:21:52;96636.66;;;20.01;87.11
41044;BME280;51680;49.806;18.774;2023-07-28T08:24:54;96642.09;;;20.38;85.43
41044;BME280;51680;49.806;18.774;2023-07-28T08:27:55;96640.50;;;21.11;82.82
41044;BME280;51680;49.806;18.774;2023-07-28T08:30:57;96625.31;;;21.63;81.76
41044;BME280;51680;49.806;18.774;2023-07-28T08:33:59;96628.44;;;22.31;78.95
41044;BME280;51680;49.806;18.774;2023-07-28T08:37:02;96631.19;;;22.44;77.40
41044;BME280;51680;49.806;18.774;2023-07-28T08:40:05;96631.19;;;22.44;77.36
41044;BME280;51680;49.806;18.774;2023-07-28T08:43:08;96638.66;;;22.48;76.48
41044;BME280;51680;49.806;18.774;2023-07-28T08:46:09;96641.84;;;22.44;76.26
41044;BME280;51680;49.806;18.774;2023-07-28T08:49:11;96643.38;;;22.32;75.90
41044;BME280;51680;49.806;18.774;2023-07-28T08:52:16;96644.31;;;22.24;75.78
41044;BME280;51680;49.806;18.774;2023-07-28T08:55:18;96659.75;;;22.35;75.76
41044;BME280;51680;49.806;18.774;2023-07-28T08:58:21;96655.72;;;22.39;76.19
41044;BME280;51680;49.806;18.774;2023-07-28T09:01:24;96662.53;;;22.27;76.37
41044;BME280;51680;49.806;18.774;2023-07-28T09:04:26;96658.97;;;22.20;77.15
41044;BME280;51680;49.806;18.774;2023-07-28T09:07:34;96666.34;;;22.04;77.97
41044;BME280;51680;49.806;18.774;2023-07-28T09:10:43;96664.91;;;21.87;79.31
41044;BME280;51680;49.806;18.774;2023-07-28T09:13:46;96671.25;;;21.86;79.59
41044;BME280;51680;49.806;18.774;2023-07-28T09:16:49;96682.88;;;21.70;81.84
41044;BME280;51680;49.806;18.774;2023-07-28T09:19:52;96687.75;;;21.81;80.44
41044;BME280;51680;49.806;18.774;2023-07-28T09:22:56;96683.88;;;21.69;80.71
41044;BME280;51680;49.806;18.774;2023-07-28T09:26:01;96680.03;;;21.72;81.43
41044;BME280;51680;49.806;18.774;2023-07-28T09:29:11;96680.69;;;21.74;82.50
41044;BME280;51680;49.806;18.774;2023-07-28T09:32:12;96681.69;;;21.73;82.37
41044;BME280;51680;49.806;18.774;2023-07-28T09:35:15;96676.06;;;21.68;82.55
41044;BME280;51680;49.806;18.774;2023-07-28T09:38:18;96674.97;;;21.48;83.45
41044;BME280;51680;49.806;18.774;2023-07-28T09:41:22;96676.72;;;21.55;83.34
41044;BME280;51680;49.806;18.774;2023-07-28T09:44:24;96674.97;;;21.33;84.22
41044;BME280;51680;49.806;18.774;2023-07-28T09:47:27;96682.63;;;21.14;85.45
41044;BME280;51680;49.806;18.774;2023-07-28T09:50:32;96682.97;;;21.11;86.31
41044;BME280;51680;49.806;18.774;2023-07-28T09:53:42;96684.47;;;20.91;87.88
41044;BME280;51680;49.806;18.774;2023-07-28T09:56:46;96691.59;;;21.13;86.03
41044;BME280;51680;49.806;18.774;2023-07-28T09:59:49;96697.09;;;21.11;85.63
41044;BME280;51680;49.806;18.774;2023-07-28T10:02:53;96686.13;;;20.92;86.39
41044;BME280;51680;49.806;18.774;2023-07-28T10:05:56;96689.00;;;20.82;87.36
41044;BME280;51680;49.806;18.774;2023-07-28T10:08:59;96686.91;;;21.00;87.04
41044;BME280;51680;49.806;18.774;2023-07-28T10:12:02;96684.75;;;21.18;86.75
41044;BME280;51680;49.806;18.774;2023-07-28T10:15:06;96681.22;;;21.55;85.44
41044;BME280;51680;49.806;18.774;2023-07-28T10:18:08;96693.16;;;21.73;84.72
41044;BME280;51680;49.806;18.774;2023-07-28T10:21:15;96694.81;;;21.89;84.65
41044;BME280;51680;49.806;18.774;2023-07-28T10:24:19;96690.03;;;21.99;84.47
41044;BME280;51680;49.806;18.774;2023-07-28T10:27:31;96694.31;;;22.14;85.39
41044;BME280;51680;49.806;18.774;2023-07-28T10:30:37;96702.56;;;22.19;83.79
41044;BME280;51680;49.806;18.774;2023-07-28T10:33:43;96694.84;;;22.24;82.69
41044;BME280;51680;49.806;18.774;2023-07-28T10:36:45;96692.88;;;22.33;82.54
41044;BME280;51680;49.806;18.774;2023-07-28T10:39:48;96692.97;;;22.39;83.63
41044;BME280;51680;49.806;18.774;2023-07-28T10:42:51;96701.06;;;22.67;82.58
41044;BME280;51680;49.806;18.774;2023-07-28T10:45:53;96694.47;;;22.84;82.20
41044;BME280;51680;49.806;18.774;2023-07-28T10:48:55;96696.44;;;22.96;81.45
41044;BME280;51680;49.806;18.774;2023-07-28T10:51:56;96698.69;;;22.99;81.26
41044;BME280;51680;49.806;18.774;2023-07-28T10:55:00;96704.09;;;23.06;80.54
41044;BME280;51680;49.806;18.774;2023-07-28T10:58:01;96702.06;;;22.87;80.39
41044;BME280;51680;49.806;18.774;2023-07-28T11:01:04;96711.88;;;23.07;80.85
41044;BME280;51680;49.806;18.774;2023-07-28T11:04:12;96703.97;;;23.14;80.58
41044;BME280;51680;49.806;18.774;2023-07-28T11:07:14;96702.66;;;23.24;80.07
41044;BME280;51680;49.806;18.774;2023-07-28T11:10:18;96708.13;;;23.44;79.16
41044;BME280;51680;49.806;18.774;2023-07-28T11:13:21;96706.75;;;23.54;79.59
41044;BME280;51680;49.806;18.774;2023-07-28T11:16:25;96708.72;;;23.73;78.91
41044;BME280;51680;49.806;18.774;2023-07-28T11:19:27;96704.44;;;23.79;78.30
41044;BME280;51680;49.806;18.774;2023-07-28T11:22:28;96710.56;;;23.73;78.38
41044;BME280;51680;49.806;18.774;2023-07-28T11:25:32;96709.28;;;23.62;77.79
41044;BME280;51680;49.806;18.774;2023-07-28T11:28:34;96709.03;;;23.30;78.40
41044;BME280;51680;49.806;18.774;2023-07-28T11:31:37;96711.22;;;23.20;78.66
41044;BME280;51680;49.806;18.774;2023-07-28T11:34:38;96712.91;;;23.27;78.54
41044;BME280;51680;49.806;18.774;2023-07-28T11:37:45;96720.09;;;23.27;77.88
41044;BME280;51680;49.806;18.774;2023-07-28T11:40:49;96722.09;;;23.25;78.01
41044;BME280;51680;49.806;18.774;2023-07-28T11:43:52;96720.59;;;23.37;77.60
41044;BME280;51680;49.806;18.774;2023-07-28T11:46:54;96719.50;;;23.31;77.48
41044;BME280;51680;49.806;18.774;2023-07-28T11:49:55;96723.44;;;23.35;77.60
41044;BME280;51680;49.806;18.774;2023-07-28T11:52:58;96719.81;;;23.43;77.15
41044;BME280;51680;49.806;18.774;2023-07-28T11:56:01;96724.28;;;23.42;76.64
41044;BME280;51680;49.806;18.774;2023-07-28T11:59:04;96731.72;;;23.47;76.96
41044;BME280;51680;49.806;18.774;2023-07-28T12:02:06;96738.31;;;23.51;77.37
41044;BME280;51680;49.806;18.774;2023-07-28T12:05:12;96727.56;;;23.38;77.13
41044;BME280;51680;49.806;18.774;2023-07-28T12:08:14;96725.22;;;23.56;76.95
41044;BME280;51680;49.806;18.774;2023-07-28T12:11:17;96724.91;;;23.72;76.07
41044;BME280;51680;49.806;18.774;2023-07-28T12:14:30;96726.31;;;23.95;76.94
41044;BME280;51680;49.806;18.774;2023-07-28T12:17:32;96728.72;;;24.24;75.51
41044;BME280;51680;49.806;18.774;2023-07-28T12:20:35;96729.22;;;24.47;74.76
41044;BME280;51680;49.806;18.774;2023-07-28T12:23:37;96726.22;;;24.70;73.86
41044;BME280;51680;49.806;18.774;2023-07-28T12:26:40;96744.97;;;24.83;73.08
41044;BME280;51680;49.806;18.774;2023-07-28T12:29:42;96731.41;;;24.78;73.64
41044;BME280;51680;49.806;18.774;2023-07-28T12:32:44;96720.31;;;24.74;72.80
41044;BME280;51680;49.806;18.774;2023-07-28T12:35:46;96726.69;;;24.73;72.87
41044;BME280;51680;49.806;18.774;2023-07-28T12:38:48;96722.97;;;24.68;73.40
41044;BME280;51680;49.806;18.774;2023-07-28T12:41:51;96717.97;;;24.52;73.91
41044;BME280;51680;49.806;18.774;2023-07-28T12:44:53;96720.81;;;24.44;74.51
41044;BME280;51680;49.806;18.774;2023-07-28T12:47:55;96709.72;;;24.40;74.56
41044;BME280;51680;49.806;18.774;2023-07-28T12:50:57;96704.56;;;24.39;74.85
41044;BME280;51680;49.806;18.774;2023-07-28T12:54:00;96705.69;;;24.64;74.14
41044;BME280;51680;49.806;18.774;2023-07-28T12:57:05;96703.44;;;24.67;73.58
41044;BME280;51680;49.806;18.774;2023-07-28T13:00:08;96699.97;;;24.86;72.84
41044;BME280;51680;49.806;18.774;2023-07-28T13:03:13;96704.94;;;24.89;73.21
41044;BME280;51680;49.806;18.774;2023-07-28T13:06:14;96714.59;;;24.97;71.88
41044;BME280;51680;49.806;18.774;2023-07-28T13:09:16;96715.00;;;24.94;71.52
41044;BME280;51680;49.806;18.774;2023-07-28T13:12:19;96704.31;;;24.94;71.45
41044;BME280;51680;49.806;18.774;2023-07-28T13:15:21;96699.19;;;24.92;70.47
41044;BME280;51680;49.806;18.774;2023-07-28T13:18:23;96700.63;;;24.88;71.11
41044;BME280;51680;49.806;18.774;2023-07-28T13:21:25;96702.66;;;24.93;71.01
41044;BME280;51680;49.806;18.774;2023-07-28T13:24:27;96705.97;;;25.01;70.00
41044;BME280;51680;49.806;18.774;2023-07-28T13:27:30;96696.50;;;25.12;69.99
41044;BME280;51680;49.806;18.774;2023-07-28T13:30:32;96699.19;;;25.18;69.91
41044;BME280;51680;49.806;18.774;2023-07-28T13:33:34;96700.03;;;25.32;70.19
41044;BME280;51680;49.806;18.774;2023-07-28T13:36:36;96695.13;;;25.42;69.50
41044;BME280;51680;49.806;18.774;2023-07-28T13:39:37;96690.97;;;25.13;68.71
41044;BME280;51680;49.806;18.774;2023-07-28T13:42:40;96688.75;;;25.30;68.40
41044;BME280;51680;49.806;18.774;2023-07-28T13:45:42;96691.81;;;25.40;68.00
41044;BME280;51680;49.806;18.774;2023-07-28T13:48:44;96685.66;;;25.26;67.22
41044;BME280;51680;49.806;18.774;2023-07-28T13:51:46;96689.97;;;25.34;68.06
41044;BME280;51680;49.806;18.774;2023-07-28T13:54:47;96699.44;;;25.43;67.46
41044;BME280;51680;49.806;18.774;2023-07-28T13:57:50;96681.97;;;25.27;66.37
41044;BME280;51680;49.806;18.774;2023-07-28T14:00:52;96687.66;;;25.24;66.99
41044;BME280;51680;49.806;18.774;2023-07-28T14:03:54;96693.25;;;25.36;67.07
41044;BME280;51680;49.806;18.774;2023-07-28T14:06:56;96689.34;;;25.51;67.04
41044;BME280;51680;49.806;18.774;2023-07-28T14:09:59;96706.03;;;25.40;66.60
41044;BME280;51680;49.806;18.774;2023-07-28T14:13:02;96704.16;;;25.41;66.96
41044;BME280;51680;49.806;18.774;2023-07-28T14:16:04;96697.16;;;25.33;67.12
41044;BME280;51680;49.806;18.774;2023-07-28T14:19:06;96705.78;;;25.48;66.93
41044;BME280;51680;49.806;18.774;2023-07-28T14:22:08;96704.34;;;25.59;67.25
41044;BME280;51680;49.806;18.774;2023-07-28T14:25:10;96695.28;;;25.73;66.86
41044;BME280;51680;49.806;18.774;2023-07-28T14:28:13;96696.69;;;25.82;66.83
41044;BME280;51680;49.806;18.774;2023-07-28T14:31:14;96694.03;;;25.82;66.71
41044;BME280;51680;49.806;18.774;2023-07-28T14:34:16;96694.44;;;25.92;66.99
41044;BME280;51680;49.806;18.774;2023-07-28T14:37:18;96692.16;;;25.82;66.84
41044;BME280;51680;49.806;18.774;2023-07-28T14:40:20;96695.03;;;25.94;67.03
41044;BME280;51680;49.806;18.774;2023-07-28T14:43:23;96700.38;;;25.94;66.85
41044;BME280;51680;49.806;18.774;2023-07-28T14:46:25;96697.94;;;25.73;66.80
41044;BME280;51680;49.806;18.774;2023-07-28T14:49:27;96690.13;;;25.71;67.31
41044;BME280;51680;49.806;18.774;2023-07-28T14:52:29;96701.69;;;25.46;67.24
41044;BME280;51680;49.806;18.774;2023-07-28T14:55:30;96702.09;;;25.43;67.47
41044;BME280;51680;49.806;18.774;2023-07-28T14:58:34;96696.38;;;25.33;67.81
41044;BME280;51680;49.806;18.774;2023-07-28T15:01:36;96696.53;;;25.18;68.48
41044;BME280;51680;49.806;18.774;2023-07-28T15:04:37;96688.09;;;25.02;69.03
41044;BME280;51680;49.806;18.774;2023-07-28T15:07:39;96697.53;;;25.04;69.47
41044;BME280;51680;49.806;18.774;2023-07-28T15:10:41;96698.66;;;24.56;71.07
41044;BME280;51680;49.806;18.774;2023-07-28T15:13:44;96691.66;;;24.49;71.67
41044;BME280;51680;49.806;18.774;2023-07-28T15:16:46;96695.66;;;24.19;73.11
41044;BME280;51680;49.806;18.774;2023-07-28T15:19:48;96687.75;;;23.98;73.97
41044;BME280;51680;49.806;18.774;2023-07-28T15:22:49;96691.91;;;24.07;73.41
41044;BME280;51680;49.806;18.774;2023-07-28T15:25:51;96673.00;;;24.02;73.20
41044;BME280;51680;49.806;18.774;2023-07-28T15:28:58;96684.16;;;24.18;72.98
41044;BME280;51680;49.806;18.774;2023-07-28T15:32:01;96692.03;;;24.33;72.34
41044;BME280;51680;49.806;18.774;2023-07-28T15:35:03;96691.59;;;24.36;72.01
41044;BME280;51680;49.806;18.774;2023-07-28T15:38:05;96695.34;;;24.41;71.75
41044;BME280;51680;49.806;18.774;2023-07-28T15:41:07;96690.47;;;24.58;71.85
41044;BME280;51680;49.806;18.774;2023-07-28T15:44:10;96680.03;;;24.63;69.87
41044;BME280;51680;49.806;18.774;2023-07-28T15:47:12;96681.19;;;24.54;70.34
41044;BME280;51680;49.806;18.774;2023-07-28T15:50:14;96679.34;;;24.48;70.22
41044;BME280;51680;49.806;18.774;2023-07-28T15:53:15;96679.56;;;24.53;70.31
41044;BME280;51680;49.806;18.774;2023-07-28T15:56:17;96676.03;;;24.46;70.93
41044;BME280;51680;49.806;18.774;2023-07-28T15:59:20;96679.75;;;24.51;70.57